sensor_id;sensor_type;location;lat;lon;timestamp;pressure;altitude;pressure_sealevel;temperature;humidity
11124;BME280;5616;42.692;23.312;2023-04-01T00:01:40;94261.34;;;12.79;61.97
11124;BME280;5616;42.692;23.312;2023-04-01T00:04:07;94257.00;;;12.49;61.42
11124;BME280;5616;42.692;23.312;2023-04-01T00:06:34;94260.34;;;12.56;61.38
11124;BME280;5616;42.692;23.312;2023-04-01T00:09:01;94256.66;;;12.45;62.16
11124;BME280;5616;42.692;23.312;2023-04-01T00:11:28;94263.22;;;12.48;61.45
11124;BME280;5616;42.692;23.312;2023-04-01T00:13:56;94257.81;;;12.49;61.58
11124;BME280;5616;42.692;23.312;2023-04-01T00:16:23;94265.50;;;12.38;61.39
11124;BME280;5616;42.692;23.312;2023-04-01T00:18:50;94267.25;;;12.12;62.30
11124;BME280;5616;42.692;23.312;2023-04-01T00:21:18;94275.31;;;11.98;62.88
11124;BME280;5616;42.692;23.312;2023-04-01T00:23:45;94265.97;;;11.97;63.29
11124;BME280;5616;42.692;23.312;2023-04-01T00:26:12;94264.59;;;11.94;62.87
11124;BME280;5616;42.692;23.312;2023-04-01T00:28:40;94249.13;;;11.88;63.12
11124;BME280;5616;42.692;23.312;2023-04-01T00:31:09;94253.13;;;11.84;63.60
11124;BME280;5616;42.692;23.312;2023-04-01T00:33:36;94253.16;;;11.77;63.73
11124;BME280;5616;42.692;23.312;2023-04-01T00:36:07;94246.81;;;11.73;63.56
11124;BME280;5616;42.692;23.312;2023-04-01T00:38:35;94259.09;;;11.78;63.07
11124;BME280;5616;42.692;23.312;2023-04-01T00:41:03;94246.56;;;11.81;64.52
11124;BME280;5616;42.692;23.312;2023-04-01T00:43:30;94246.22;;;11.64;66.05
11124;BME280;5616;42.692;23.312;2023-04-01T00:45:57;94246.84;;;11.60;68.44
11124;BME280;5616;42.692;23.312;2023-04-01T00:48:28;94233.72;;;11.61;69.26
11124;BME280;5616;42.692;23.312;2023-04-01T00:50:58;94234.16;;;11.58;69.15
11124;BME280;5616;42.692;23.312;2023-04-01T00:53:26;94225.19;;;11.61;69.80
11124;BME280;5616;42.692;23.312;2023-04-01T00:55:58;94224.56;;;11.65;70.02
11124;BME280;5616;42.692;23.312;2023-04-01T00:58:29;94219.78;;;11.69;70.54
11124;BME280;5616;42.692;23.312;2023-04-01T01:00:58;94209.84;;;11.66;69.14
11124;BME280;5616;42.692;23.312;2023-04-01T01:03:27;94211.47;;;11.60;69.85
11124;BME280;5616;42.692;23.312;2023-04-01T01:06:07;94199.09;;;11.69;70.08
11124;BME280;5616;42.692;23.312;2023-04-01T01:08:50;94195.38;;;11.58;69.30
11124;BME280;5616;42.692;23.312;2023-04-01T01:11:27;94193.53;;;11.59;69.68
11124;BME280;5616;42.692;23.312;2023-04-01T01:14:00;94193.34;;;11.60;69.95
11124;BME280;5616;42.692;23.312;2023-04-01T01:16:30;94186.41;;;11.61;69.63
11124;BME280;5616;42.692;23.312;2023-04-01T01:19:07;94183.41;;;11.64;69.85
11124;BME280;5616;42.692;23.312;2023-04-01T01:21:57;94186.34;;;11.67;69.89
11124;BME280;5616;42.692;23.312;2023-04-01T01:24:50;94180.84;;;11.57;69.84
11124;BME280;5616;42.692;23.312;2023-04-01T01:27:20;94173.41;;;11.67;69.69
11124;BME280;5616;42.692;23.312;2023-04-01T01:30:00;94168.41;;;11.79;69.77
11124;BME280;5616;42.692;23.312;2023-04-01T01:33:06;94164.19;;;11.85;69.04
11124;BME280;5616;42.692;23.312;2023-04-01T01:35:38;94163.13;;;11.92;69.08
11124;BME280;5616;42.692;23.312;2023-04-01T01:38:16;94160.72;;;11.91;67.66
11124;BME280;5616;42.692;23.312;2023-04-01T01:40:50;94165.91;;;11.91;67.71
11124;BME280;5616;42.692;23.312;2023-04-01T01:43:24;94163.38;;;11.84;67.04
11124;BME280;5616;42.692;23.312;2023-04-01T01:45:54;94162.75;;;11.89;66.17
11124;BME280;5616;42.692;23.312;2023-04-01T01:48:23;94167.81;;;11.77;66.79
11124;BME280;5616;42.692;23.312;2023-04-01T01:50:52;94161.59;;;11.85;67.66
11124;BME280;5616;42.692;23.312;2023-04-01T01:53:20;94157.94;;;11.92;68.51
11124;BME280;5616;42.692;23.312;2023-04-01T01:55:47;94163.28;;;11.97;67.86
11124;BME280;5616;42.692;23.312;2023-04-01T01:58:17;94154.06;;;12.01;67.35
11124;BME280;5616;42.692;23.312;2023-04-01T02:00:50;94152.13;;;11.97;66.23
11124;BME280;5616;42.692;23.312;2023-04-01T02:03:21;94146.59;;;11.93;65.84
11124;BME280;5616;42.692;23.312;2023-04-01T02:05:54;94144.78;;;11.94;65.83
11124;BME280;5616;42.692;23.312;2023-04-01T02:08:25;94142.59;;;11.97;65.61
11124;BME280;5616;42.692;23.312;2023-04-01T02:10:57;94134.41;;;12.00;64.76
11124;BME280;5616;42.692;23.312;2023-04-01T02:13:35;94132.00;;;11.99;64.48
11124;BME280;5616;42.692;23.312;2023-04-01T02:16:09;94131.69;;;11.89;65.37
11124;BME280;5616;42.692;23.312;2023-04-01T02:18:38;94124.91;;;11.94;65.23
11124;BME280;5616;42.692;23.312;2023-04-01T02:21:07;94130.38;;;12.04;64.58
11124;BME280;5616;42.692;23.312;2023-04-01T02:23:36;94122.75;;;12.09;64.58
11124;BME280;5616;42.692;23.312;2023-04-01T02:26:05;94129.38;;;12.05;64.49
11124;BME280;5616;42.692;23.312;2023-04-01T02:28:34;94126.31;;;12.15;64.43
11124;BME280;5616;42.692;23.312;2023-04-01T02:31:01;94119.03;;;12.05;65.09
11124;BME280;5616;42.692;23.312;2023-04-01T02:33:30;94132.41;;;12.20;65.04
11124;BME280;5616;42.692;23.312;2023-04-01T02:35:57;94122.50;;;12.17;63.57
11124;BME280;5616;42.692;23.312;2023-04-01T02:38:26;94136.88;;;12.13;63.68
11124;BME280;5616;42.692;23.312;2023-04-01T02:40:58;94138.59;;;12.19;64.55
11124;BME280;5616;42.692;23.312;2023-04-01T02:43:25;94133.59;;;12.24;63.34
11124;BME280;5616;42.692;23.312;2023-04-01T02:45:52;94141.69;;;12.28;63.05
11124;BME280;5616;42.692;23.312;2023-04-01T02:48:19;94141.56;;;12.23;64.25
11124;BME280;5616;42.692;23.312;2023-04-01T02:50:47;94138.59;;;12.19;64.37
11124;BME280;5616;42.692;23.312;2023-04-01T02:53:13;94145.50;;;12.25;62.85
11124;BME280;5616;42.692;23.312;2023-04-01T02:55:42;94157.88;;;12.23;63.34
11124;BME280;5616;42.692;23.312;2023-04-01T02:58:10;94156.25;;;12.29;64.71
11124;BME280;5616;42.692;23.312;2023-04-01T03:00:37;94162.41;;;12.28;63.69
11124;BME280;5616;42.692;23.312;2023-04-01T03:03:04;94176.03;;;12.17;63.85
11124;BME280;5616;42.692;23.312;2023-04-01T03:05:31;94173.09;;;12.13;65.04
11124;BME280;5616;42.692;23.312;2023-04-01T03:07:57;94164.13;;;12.16;64.16
11124;BME280;5616;42.692;23.312;2023-04-01T03:10:24;94179.13;;;12.07;64.49
11124;BME280;5616;42.692;23.312;2023-04-01T03:12:52;94175.69;;;12.13;63.89
11124;BME280;5616;42.692;23.312;2023-04-01T03:15:19;94165.91;;;12.15;63.46
11124;BME280;5616;42.692;23.312;2023-04-01T03:17:46;94175.69;;;12.13;64.74
11124;BME280;5616;42.692;23.312;2023-04-01T03:20:14;94175.28;;;12.16;64.95
11124;BME280;5616;42.692;23.312;2023-04-01T03:22:42;94169.88;;;12.18;63.60
11124;BME280;5616;42.692;23.312;2023-04-01T03:25:10;94168.47;;;12.22;64.25
11124;BME280;5616;42.692;23.312;2023-04-01T03:27:37;94200.94;;;12.18;64.98
11124;BME280;5616;42.692;23.312;2023-04-01T03:30:07;94189.16;;;12.22;64.91
11124;BME280;5616;42.692;23.312;2023-04-01T03:32:42;94184.59;;;12.17;65.19
11124;BME280;5616;42.692;23.312;2023-04-01T03:35:09;94180.50;;;12.10;64.25
11124;BME280;5616;42.692;23.312;2023-04-01T03:37:36;94170.38;;;12.08;67.58
11124;BME280;5616;42.692;23.312;2023-04-01T03:40:05;94162.75;;;12.13;66.76
11124;BME280;5616;42.692;23.312;2023-04-01T03:42:32;94152.97;;;12.15;66.53
11124;BME280;5616;42.692;23.312;2023-04-01T03:44:59;94144.69;;;12.07;65.86
11124;BME280;5616;42.692;23.312;2023-04-01T03:47:27;94133.59;;;12.00;65.39
11124;BME280;5616;42.692;23.312;2023-04-01T03:49:54;94117.44;;;12.04;66.22
11124;BME280;5616;42.692;23.312;2023-04-01T03:52:21;94098.81;;;11.96;65.66
11124;BME280;5616;42.692;23.312;2023-04-01T03:54:47;94094.22;;;11.98;66.39
11124;BME280;5616;42.692;23.312;2023-04-01T03:57:14;94085.88;;;11.96;65.57
11124;BME280;5616;42.692;23.312;2023-04-01T03:59:41;94081.75;;;11.88;68.04
11124;BME280;5616;42.692;23.312;2023-04-01T04:02:08;94074.00;;;11.88;67.40
11124;BME280;5616;42.692;23.312;2023-04-01T04:04:37;94061.44;;;11.92;67.72
11124;BME280;5616;42.692;23.312;2023-04-01T04:07:04;94060.88;;;11.90;69.57
11124;BME280;5616;42.692;23.312;2023-04-01T04:09:47;94054.47;;;11.92;70.04
11124;BME280;5616;42.692;23.312;2023-04-01T04:12:14;94046.50;;;11.94;68.60
11124;BME280;5616;42.692;23.312;2023-04-01T04:14:40;94047.44;;;11.99;68.31
11124;BME280;5616;42.692;23.312;2023-04-01T04:17:09;94036.66;;;12.02;67.36
11124;BME280;5616;42.692;23.312;2023-04-01T04:19:40;94047.53;;;12.11;66.57
11124;BME280;5616;42.692;23.312;2023-04-01T04:22:07;94040.91;;;11.97;66.16
11124;BME280;5616;42.692;23.312;2023-04-01T04:24:34;94037.63;;;11.83;68.08
11124;BME280;5616;42.692;23.312;2023-04-01T04:27:07;94032.41;;;11.72;65.59
11124;BME280;5616;42.692;23.312;2023-04-01T04:29:36;94033.63;;;11.69;65.94
11124;BME280;5616;42.692;23.312;2023-04-01T04:32:04;94012.56;;;11.59;66.45
11124;BME280;5616;42.692;23.312;2023-04-01T04:34:31;94018.69;;;11.64;66.87
11124;BME280;5616;42.692;23.312;2023-04-01T04:36:59;94024.84;;;11.70;66.60
11124;BME280;5616;42.692;23.312;2023-04-01T04:39:30;94022.25;;;11.70;67.95
11124;BME280;5616;42.692;23.312;2023-04-01T04:41:57;94024.56;;;11.78;67.15
11124;BME280;5616;42.692;23.312;2023-04-01T04:44:24;94026.31;;;11.84;66.70
11124;BME280;5616;42.692;23.312;2023-04-01T04:46:50;94014.50;;;11.88;65.38
11124;BME280;5616;42.692;23.312;2023-04-01T04:49:18;94004.16;;;11.88;64.24
11124;BME280;5616;42.692;23.312;2023-04-01T04:51:45;93991.97;;;11.77;64.15
11124;BME280;5616;42.692;23.312;2023-04-01T04:54:15;94003.03;;;11.84;65.22
11124;BME280;5616;42.692;23.312;2023-04-01T04:56:51;93998.00;;;11.89;66.67
11124;BME280;5616;42.692;23.312;2023-04-01T04:59:18;94001.28;;;11.78;66.85
11124;BME280;5616;42.692;23.312;2023-04-01T05:01:51;94006.84;;;11.82;66.52
11124;BME280;5616;42.692;23.312;2023-04-01T05:04:18;93989.28;;;11.84;64.98
11124;BME280;5616;42.692;23.312;2023-04-01T05:06:45;93981.75;;;11.82;62.90
11124;BME280;5616;42.692;23.312;2023-04-01T05:09:12;93983.84;;;11.67;65.13
11124;BME280;5616;42.692;23.312;2023-04-01T05:11:41;93974.78;;;11.83;65.65
11124;BME280;5616;42.692;23.312;2023-04-01T05:14:12;93974.84;;;11.76;64.94
11124;BME280;5616;42.692;23.312;2023-04-01T05:16:40;93973.41;;;11.80;64.24
11124;BME280;5616;42.692;23.312;2023-04-01T05:19:07;93970.19;;;11.85;63.72
11124;BME280;5616;42.692;23.312;2023-04-01T05:21:34;93961.34;;;11.74;64.05
11124;BME280;5616;42.692;23.312;2023-04-01T05:24:01;93948.13;;;11.82;63.16
11124;BME280;5616;42.692;23.312;2023-04-01T05:26:30;93955.81;;;11.89;62.43
11124;BME280;5616;42.692;23.312;2023-04-01T05:28:59;93939.22;;;11.96;62.67
11124;BME280;5616;42.692;23.312;2023-04-01T05:31:26;93940.66;;;11.92;61.47
11124;BME280;5616;42.692;23.312;2023-04-01T05:33:53;93951.72;;;11.99;62.81
11124;BME280;5616;42.692;23.312;2023-04-01T05:36:20;93968.13;;;12.11;63.07
11124;BME280;5616;42.692;23.312;2023-04-01T05:38:47;93953.28;;;12.18;61.25
11124;BME280;5616;42.692;23.312;2023-04-01T05:41:16;93959.41;;;12.24;60.49
11124;BME280;5616;42.692;23.312;2023-04-01T05:43:45;93957.22;;;12.39;60.91
11124;BME280;5616;42.692;23.312;2023-04-01T05:46:45;93953.69;;;12.34;61.62
11124;BME280;5616;42.692;23.312;2023-04-01T05:49:21;93953.69;;;12.34;59.47
11124;BME280;5616;42.692;23.312;2023-04-01T05:51:49;93942.16;;;12.48;59.19
11124;BME280;5616;42.692;23.312;2023-04-01T05:54:17;93947.16;;;12.61;58.56
11124;BME280;5616;42.692;23.312;2023-04-01T05:56:44;93946.13;;;12.62;59.57
11124;BME280;5616;42.692;23.312;2023-04-01T05:59:12;93951.28;;;12.80;58.85
11124;BME280;5616;42.692;23.312;2023-04-01T06:01:39;93937.97;;;12.88;57.78
11124;BME280;5616;42.692;23.312;2023-04-01T06:04:11;93939.63;;;13.12;56.87
11124;BME280;5616;42.692;23.312;2023-04-01T06:06:39;93934.81;;;13.27;56.53
11124;BME280;5616;42.692;23.312;2023-04-01T06:09:13;93939.88;;;13.57;55.99
11124;BME280;5616;42.692;23.312;2023-04-01T06:11:57;93945.84;;;13.81;55.58
11124;BME280;5616;42.692;23.312;2023-04-01T06:14:39;93946.78;;;14.15;53.29
11124;BME280;5616;42.692;23.312;2023-04-01T06:17:23;93942.63;;;14.53;53.30
11124;BME280;5616;42.692;23.312;2023-04-01T06:20:00;93937.41;;;14.82;51.08
11124;BME280;5616;42.692;23.312;2023-04-01T06:22:43;93932.69;;;14.95;50.99
11124;BME280;5616;42.692;23.312;2023-04-01T06:25:38;93941.75;;;14.93;50.00
11124;BME280;5616;42.692;23.312;2023-04-01T06:28:38;93942.47;;;15.05;51.87
11124;BME280;5616;42.692;23.312;2023-04-01T06:31:12;93938.06;;;15.22;49.95
11124;BME280;5616;42.692;23.312;2023-04-01T06:33:52;93912.84;;;15.39;49.57
11124;BME280;5616;42.692;23.312;2023-04-01T06:36:53;93918.91;;;15.61;49.42
11124;BME280;5616;42.692;23.312;2023-04-01T06:39:36;93918.66;;;15.63;48.56
11124;BME280;5616;42.692;23.312;2023-04-01T06:42:16;93921.91;;;15.53;47.88
11124;BME280;5616;42.692;23.312;2023-04-01T06:44:54;93915.38;;;15.01;50.48
11124;BME280;5616;42.692;23.312;2023-04-01T06:47:55;93911.66;;;14.97;49.40
11124;BME280;5616;42.692;23.312;2023-04-01T06:50:50;93892.84;;;14.90;49.88
11124;BME280;5616;42.692;23.312;2023-04-01T06:53:46;93911.47;;;14.70;51.70
11124;BME280;5616;42.692;23.312;2023-04-01T06:56:37;93879.59;;;14.75;51.84
11124;BME280;5616;42.692;23.312;2023-04-01T06:59:25;93878.09;;;14.79;51.46
11124;BME280;5616;42.692;23.312;2023-04-01T07:01:55;93892.09;;;14.61;52.24
11124;BME280;5616;42.692;23.312;2023-04-01T07:04:26;93893.47;;;14.35;53.74
11124;BME280;5616;42.692;23.312;2023-04-01T07:06:58;93895.00;;;14.48;53.25
11124;BME280;5616;42.692;23.312;2023-04-01T07:09:31;93897.44;;;14.54;54.28
11124;BME280;5616;42.692;23.312;2023-04-01T07:12:23;93879.22;;;14.83;53.48
11124;BME280;5616;42.692;23.312;2023-04-01T07:15:30;93878.97;;;15.01;53.00
11124;BME280;5616;42.692;23.312;2023-04-01T07:18:05;93874.09;;;14.88;53.84
11124;BME280;5616;42.692;23.312;2023-04-01T07:20:37;93869.06;;;14.98;54.86
11124;BME280;5616;42.692;23.312;2023-04-01T07:23:07;93878.41;;;14.99;54.96
11124;BME280;5616;42.692;23.312;2023-04-01T07:25:58;93882.06;;;15.14;54.93
11124;BME280;5616;42.692;23.312;2023-04-01T07:28:45;93875.03;;;15.15;53.92
11124;BME280;5616;42.692;23.312;2023-04-01T07:31:32;93882.34;;;15.18;53.71
11124;BME280;5616;42.692;23.312;2023-04-01T07:34:09;93894.72;;;15.11;54.05
11124;BME280;5616;42.692;23.312;2023-04-01T07:36:45;93895.97;;;15.25;54.14
11124;BME280;5616;42.692;23.312;2023-04-01T07:39:23;93903.47;;;15.21;54.24
11124;BME280;5616;42.692;23.312;2023-04-01T07:42:09;93888.75;;;15.27;55.76
11124;BME280;5616;42.692;23.312;2023-04-01T07:44:46;93861.00;;;15.32;54.57
11124;BME280;5616;42.692;23.312;2023-04-01T07:47:35;93877.69;;;15.20;55.18
11124;BME280;5616;42.692;23.312;2023-04-01T07:50:13;93868.06;;;15.37;55.53
11124;BME280;5616;42.692;23.312;2023-04-01T07:52:52;93866.56;;;15.41;53.71
11124;BME280;5616;42.692;23.312;2023-04-01T07:55:30;93856.16;;;15.41;54.39
11124;BME280;5616;42.692;23.312;2023-04-01T07:58:07;93860.97;;;15.49;55.04
11124;BME280;5616;42.692;23.312;2023-04-01T08:00:46;93856.41;;;15.40;55.93
11124;BME280;5616;42.692;23.312;2023-04-01T08:03:33;93861.41;;;15.24;55.81
11124;BME280;5616;42.692;23.312;2023-04-01T08:06:11;93848.53;;;15.35;54.49
11124;BME280;5616;42.692;23.312;2023-04-01T08:08:50;93855.59;;;15.39;55.12
11124;BME280;5616;42.692;23.312;2023-04-01T08:11:51;93856.56;;;15.50;55.18
11124;BME280;5616;42.692;23.312;2023-04-01T08:14:52;93842.66;;;15.61;54.06
11124;BME280;5616;42.692;23.312;2023-04-01T08:17:46;93829.97;;;15.64;53.84
11124;BME280;5616;42.692;23.312;2023-04-01T08:20:25;93826.63;;;15.69;53.31
11124;BME280;5616;42.692;23.312;2023-04-01T08:22:57;93821.06;;;15.82;52.52
11124;BME280;5616;42.692;23.312;2023-04-01T08:25:32;93827.16;;;15.93;51.98
11124;BME280;5616;42.692;23.312;2023-04-01T08:28:04;93826.03;;;16.10;53.33
11124;BME280;5616;42.692;23.312;2023-04-01T08:30:42;93818.09;;;16.22;51.65
11124;BME280;5616;42.692;23.312;2023-04-01T08:33:15;93803.13;;;16.39;50.79
11124;BME280;5616;42.692;23.312;2023-04-01T08:35:48;93799.59;;;16.50;51.82
11124;BME280;5616;42.692;23.312;2023-04-01T08:38:22;93784.41;;;16.69;52.08
11124;BME280;5616;42.692;23.312;2023-04-01T08:40:59;93781.06;;;17.62;49.09
11124;BME280;5616;42.692;23.312;2023-04-01T08:44:16;93745.75;;;18.67;45.49
11124;BME280;5616;42.692;23.312;2023-04-01T08:47:15;93750.34;;;19.30;43.94
11124;BME280;5616;42.692;23.312;2023-04-01T08:53:03;93743.75;;;20.07;42.07
11124;BME280;5616;42.692;23.312;2023-04-01T08:55:47;93746.69;;;20.39;41.09
11124;BME280;5616;42.692;23.312;2023-04-01T09:05:39;93749.25;;;21.12;38.84
11124;BME280;5616;42.692;23.312;2023-04-01T09:08:21;93749.25;;;21.59;38.00
11124;BME280;5616;42.692;23.312;2023-04-01T09:11:08;93749.56;;;21.76;37.61
11124;BME280;5616;42.692;23.312;2023-04-01T09:14:10;93746.03;;;21.20;36.68
11124;BME280;5616;42.692;23.312;2023-04-01T09:17:17;93750.13;;;20.68;35.68
11124;BME280;5616;42.692;23.312;2023-04-01T09:20:19;93742.88;;;20.55;37.20
11124;BME280;5616;42.692;23.312;2023-04-01T09:23:17;93738.16;;;20.57;37.34
11124;BME280;5616;42.692;23.312;2023-04-01T09:26:10;93729.31;;;20.48;37.68
11124;BME280;5616;42.692;23.312;2023-04-01T09:28:46;93729.94;;;20.35;38.00
11124;BME280;5616;42.692;23.312;2023-04-01T09:31:45;93714.31;;;20.20;37.94
11124;BME280;5616;42.692;23.312;2023-04-01T09:34:52;93715.41;;;20.09;39.62
11124;BME280;5616;42.692;23.312;2023-04-01T09:37:27;93709.22;;;19.95;37.98
11124;BME280;5616;42.692;23.312;2023-04-01T09:40:15;93711.63;;;19.81;39.17
11124;BME280;5616;42.692;23.312;2023-04-01T09:43:00;93712.50;;;19.67;38.13
11124;BME280;5616;42.692;23.312;2023-04-01T09:45:45;93685.97;;;19.19;38.67
11124;BME280;5616;42.692;23.312;2023-04-01T09:48:27;93682.84;;;19.22;38.79
11124;BME280;5616;42.692;23.312;2023-04-01T09:51:05;93685.41;;;19.32;37.96
11124;BME280;5616;42.692;23.312;2023-04-01T09:53:48;93685.91;;;19.34;38.59
11124;BME280;5616;42.692;23.312;2023-04-01T09:59:51;93664.97;;;19.34;38.54
11124;BME280;5616;42.692;23.312;2023-04-01T10:09:26;93658.03;;;19.00;38.70
11124;BME280;5616;42.692;23.312;2023-04-01T10:21:55;93635.63;;;18.73;40.52
11124;BME280;5616;42.692;23.312;2023-04-01T10:27:33;93631.97;;;18.74;39.64
11124;BME280;5616;42.692;23.312;2023-04-01T10:31:02;93632.47;;;18.76;39.89
11124;BME280;5616;42.692;23.312;2023-04-01T10:33:50;93628.63;;;18.13;43.27
11124;BME280;5616;42.692;23.312;2023-04-01T10:36:47;93632.53;;;18.26;42.50
11124;BME280;5616;42.692;23.312;2023-04-01T10:39:48;93628.91;;;18.12;42.30
11124;BME280;5616;42.692;23.312;2023-04-01T10:46:24;93609.53;;;17.57;45.03
11124;BME280;5616;42.692;23.312;2023-04-01T10:52:33;93608.78;;;17.67;43.41
11124;BME280;5616;42.692;23.312;2023-04-01T10:59:15;93597.22;;;17.28;43.44
11124;BME280;5616;42.692;23.312;2023-04-01T11:06:17;93582.59;;;17.22;44.26
11124;BME280;5616;42.692;23.312;2023-04-01T11:09:14;93586.72;;;17.12;45.09
11124;BME280;5616;42.692;23.312;2023-04-01T11:12:03;93568.94;;;16.99;46.03
11124;BME280;5616;42.692;23.312;2023-04-01T11:24:27;93570.56;;;17.16;45.41
11124;BME280;5616;42.692;23.312;2023-04-01T11:27:37;93625.31;;;17.10;47.59
11124;BME280;5616;42.692;23.312;2023-04-01T11:30:16;93622.19;;;17.13;46.81
11124;BME280;5616;42.692;23.312;2023-04-01T11:32:53;93666.78;;;17.12;47.21
11124;BME280;5616;42.692;23.312;2023-04-01T11:39:10;93676.34;;;16.49;52.91
11124;BME280;5616;42.692;23.312;2023-04-01T11:42:26;93711.34;;;16.27;56.50
11124;BME280;5616;42.692;23.312;2023-04-01T11:45:22;93749.78;;;15.61;60.04
11124;BME280;5616;42.692;23.312;2023-04-01T11:48:07;93779.69;;;15.20;64.35
11124;BME280;5616;42.692;23.312;2023-04-01T11:50:52;93785.97;;;14.86;67.07
11124;BME280;5616;42.692;23.312;2023-04-01T11:53:30;93837.94;;;14.25;73.55
11124;BME280;5616;42.692;23.312;2023-04-01T11:56:09;93846.19;;;13.93;75.14
11124;BME280;5616;42.692;23.312;2023-04-01T12:01:59;93852.88;;;13.38;81.18
11124;BME280;5616;42.692;23.312;2023-04-01T12:04:54;93864.72;;;13.11;82.51
11124;BME280;5616;42.692;23.312;2023-04-01T12:07:32;93851.75;;;13.11;85.78
11124;BME280;5616;42.692;23.312;2023-04-01T12:10:13;93844.78;;;13.11;87.93
11124;BME280;5616;42.692;23.312;2023-04-01T12:12:48;93840.59;;;13.10;84.89
11124;BME280;5616;42.692;23.312;2023-04-01T12:15:23;93834.06;;;13.19;84.21
11124;BME280;5616;42.692;23.312;2023-04-01T12:18:00;93817.91;;;13.40;84.34
11124;BME280;5616;42.692;23.312;2023-04-01T12:20:38;93826.28;;;13.71;86.13
11124;BME280;5616;42.692;23.312;2023-04-01T12:23:22;93829.34;;;13.96;86.61
11124;BME280;5616;42.692;23.312;2023-04-01T12:26:15;93837.16;;;14.52;84.45
11124;BME280;5616;42.692;23.312;2023-04-01T12:28:59;93840.25;;;14.83;84.41
11124;BME280;5616;42.692;23.312;2023-04-01T12:31:38;93848.13;;;14.88;83.41
11124;BME280;5616;42.692;23.312;2023-04-01T12:34:34;93853.69;;;14.63;84.85
11124;BME280;5616;42.692;23.312;2023-04-01T12:37:17;93856.25;;;14.46;83.01
11124;BME280;5616;42.692;23.312;2023-04-01T12:39:56;93855.25;;;14.47;81.99
11124;BME280;5616;42.692;23.312;2023-04-01T12:42:53;93847.63;;;14.29;80.18
11124;BME280;5616;42.692;23.312;2023-04-01T12:45:31;93835.31;;;14.08;81.66
11124;BME280;5616;42.692;23.312;2023-04-01T12:48:18;93836.59;;;13.94;83.13
11124;BME280;5616;42.692;23.312;2023-04-01T12:54:04;93836.59;;;13.54;85.67
11124;BME280;5616;42.692;23.312;2023-04-01T12:56:41;93824.50;;;13.60;83.94
11124;BME280;5616;42.692;23.312;2023-04-01T12:59:44;93808.31;;;13.53;85.21
11124;BME280;5616;42.692;23.312;2023-04-01T13:02:27;93794.53;;;13.52;85.51
11124;BME280;5616;42.692;23.312;2023-04-01T13:05:19;93797.66;;;13.03;90.04
11124;BME280;5616;42.692;23.312;2023-04-01T13:07:58;93803.84;;;12.78;91.83
11124;BME280;5616;42.692;23.312;2023-04-01T13:10:54;93780.53;;;12.90;93.85
11124;BME280;5616;42.692;23.312;2023-04-01T13:13:39;93771.41;;;13.11;92.21
11124;BME280;5616;42.692;23.312;2023-04-01T13:16:14;93746.25;;;13.23;88.38
11124;BME280;5616;42.692;23.312;2023-04-01T13:18:54;93777.44;;;13.39;87.70
11124;BME280;5616;42.692;23.312;2023-04-01T13:21:34;93775.56;;;13.63;90.53
11124;BME280;5616;42.692;23.312;2023-04-01T13:24:15;93751.50;;;13.79;90.22
11124;BME280;5616;42.692;23.312;2023-04-01T13:26:55;93743.34;;;14.04;85.22
11124;BME280;5616;42.692;23.312;2023-04-01T13:29:25;93738.97;;;14.21;81.35
11124;BME280;5616;42.692;23.312;2023-04-01T13:32:05;93728.91;;;14.41;83.37
11124;BME280;5616;42.692;23.312;2023-04-01T13:34:49;93715.66;;;13.93;83.84
11124;BME280;5616;42.692;23.312;2023-04-01T13:37:30;93720.72;;;14.16;81.69
11124;BME280;5616;42.692;23.312;2023-04-01T13:43:02;93706.47;;;14.52;79.61
11124;BME280;5616;42.692;23.312;2023-04-01T13:45:38;93695.97;;;14.80;75.53
11124;BME280;5616;42.692;23.312;2023-04-01T13:48:35;93696.66;;;15.14;75.44
11124;BME280;5616;42.692;23.312;2023-04-01T13:51:17;93698.34;;;15.25;78.10
11124;BME280;5616;42.692;23.312;2023-04-01T13:54:00;93698.91;;;15.27;74.70
11124;BME280;5616;42.692;23.312;2023-04-01T13:56:42;93691.38;;;15.52;67.25
11124;BME280;5616;42.692;23.312;2023-04-01T13:59:36;93691.97;;;15.86;64.95
11124;BME280;5616;42.692;23.312;2023-04-01T14:02:21;93693.53;;;16.14;60.56
11124;BME280;5616;42.692;23.312;2023-04-01T14:05:04;93679.38;;;16.36;58.80
11124;BME280;5616;42.692;23.312;2023-04-01T14:07:49;93676.16;;;16.56;56.95
11124;BME280;5616;42.692;23.312;2023-04-01T14:10:23;93665.00;;;16.66;60.18
11124;BME280;5616;42.692;23.312;2023-04-01T14:13:00;93674.78;;;16.85;54.48
11124;BME280;5616;42.692;23.312;2023-04-01T14:15:42;93675.38;;;17.07;53.75
11124;BME280;5616;42.692;23.312;2023-04-01T14:18:36;93662.97;;;17.30;53.15
11124;BME280;5616;42.692;23.312;2023-04-01T14:21:29;93667.13;;;17.31;53.63
11124;BME280;5616;42.692;23.312;2023-04-01T14:27:11;93643.13;;;17.34;51.65
11124;BME280;5616;42.692;23.312;2023-04-01T14:29:48;93650.13;;;17.18;53.30
11124;BME280;5616;42.692;23.312;2023-04-01T14:32:30;93632.47;;;16.73;59.62
11124;BME280;5616;42.692;23.312;2023-04-01T14:35:17;93631.00;;;16.92;60.55
11124;BME280;5616;42.692;23.312;2023-04-01T14:38:11;93623.22;;;17.07;59.75
11124;BME280;5616;42.692;23.312;2023-04-01T14:40:56;93621.69;;;17.11;63.81
11124;BME280;5616;42.692;23.312;2023-04-01T14:43:47;93629.22;;;17.08;59.95
11124;BME280;5616;42.692;23.312;2023-04-01T14:46:34;93629.00;;;17.15;58.24
11124;BME280;5616;42.692;23.312;2023-04-01T14:49:16;93619.25;;;16.90;59.08
11124;BME280;5616;42.692;23.312;2023-04-01T14:51:45;93641.03;;;16.69;61.56
11124;BME280;5616;42.692;23.312;2023-04-01T14:54:15;93635.63;;;16.80;62.75
11124;BME280;5616;42.692;23.312;2023-04-01T14:56:49;93640.72;;;16.60;64.91
11124;BME280;5616;42.692;23.312;2023-04-01T14:59:26;93636.84;;;16.63;65.31
11124;BME280;5616;42.692;23.312;2023-04-01T15:01:59;93641.59;;;16.34;66.06
11124;BME280;5616;42.692;23.312;2023-04-01T15:04:44;93641.00;;;16.22;65.39
11124;BME280;5616;42.692;23.312;2023-04-01T15:07:38;93646.56;;;15.99;66.79
11124;BME280;5616;42.692;23.312;2023-04-01T15:10:18;93644.47;;;15.69;69.69